Terminal Aerodrome Forecast
Issued by NWS Nashville, TN

Home | Current Version | Previous Version | Text Only | Print | Product List | Glossary On
Versions: 1 2 3 4 5 6 7 8 9 10 11 12 13 14 15 16 17 18 19 20
106
FTUS44 KOHX 281509 AAB
TAFCSV
TAF AMD
KCSV 281509Z 2815/2912 25006KT P6SM VCSH SCT008 OVC015
      TEMPO 2815/2818 2SM SHRA BR OVC008
     FM281800 25006KT P6SM VCTS OVC030CB
     FM290000 31006KT P6SM OVC020
     FM290500 32006KT 4SM BR OVC007
     FM290800 32005KT 1 1/2SM BR OVC007=

USA.gov is the U.S. government's official web portal to all federal, state and local government web resources and services.